VLLN

Luang Namtha Airport

Luang Namtha, Lao People’s Democratic Republic
TAF VLLN 251100Z 2512/2612 04004KT 7000 SCT020 BKN100 TEMPO 2516/2522 3000 BR SCT017 BKN100
Issued Valid From Valid To
Apr-25 @ 11:00 UTC
(7 hours ago)
Apr-25 @ 12:00 UTC
(6 hours ago)
Apr-26 @ 12:00 UTC
(in 18 hours)
Apr-25 @ 12:00 to Apr-26 @ 12:00
TAF VLLN 251100Z 2512/2612 04004KT 7000 SCT020 BKN100
Wind Visibility Clouds
40° at 4 knots 7,001 meters
  • Scattered at 2,000' AGL
  • Broken at 10,000' AGL
Temporary Apr-25 @ 16:00 to Apr-25 @ 22:00
TEMPO 2516/2522 3000 BR SCT017 BKN100
Visibility Clouds Conditions
2,993 meters
  • Scattered at 1,700' AGL
  • Broken at 10,000' AGL
  • Mist
TAF VLLN 251100Z 2512/2612 04004KT 7000 SCT020 BKN100 TEMPO 2516/2522 3000 BR SCT017 BKN100
Issued Apr-25 @ 11:00 UTC
(7 hours ago)
Valid From Apr-25 @ 12:00 UTC
(6 hours ago)
Valid To Apr-26 @ 12:00 UTC
(in 18 hours)
Apr-25 @ 12:00 - Apr-26 @ 12:00
Wind Visibility
40° at 4 knots 7,001 meters
Clouds
  • Scattered at 2,000' AGL
  • Broken at 10,000' AGL
Temporary Apr-25 @ 16:00 - Apr-25 @ 22:00
Clouds
  • Scattered at 1,700' AGL
  • Broken at 10,000' AGL
Conditions
  • Mist